createdAt,value
2023-02-22T10:55:20.442Z,111602.80
2023-02-22T10:56:23.743Z,105490.55
2023-02-22T10:57:27.009Z,105620.50
2023-02-22T10:58:30.291Z,105360.59
2023-02-22T10:59:33.491Z,106140.34
2023-02-22T11:00:37.074Z,106660.27
2023-02-22T11:01:40.215Z,107830.33
2023-02-22T11:02:43.221Z,109130.78
2023-02-22T11:03:46.410Z,109781.17
2023-02-22T11:04:49.999Z,109651.09
2023-02-22T11:05:53.597Z,109651.09
2023-02-22T11:06:56.561Z,109911.27
2023-02-22T11:07:59.486Z,111472.66
2023-02-22T11:09:02.918Z,112123.42
2023-02-22T11:10:06.118Z,111863.11
2023-02-22T11:11:09.286Z,112383.76
2023-02-22T11:12:12.376Z,112774.28
2023-02-22T11:13:15.356Z,112513.92
2023-02-22T11:14:18.321Z,113034.66
2023-02-22T11:15:21.319Z,113034.66
2023-02-22T11:16:24.503Z,113034.66
2023-02-22T11:17:28.174Z,113034.66
2023-02-22T11:18:31.472Z,112513.92
2023-02-22T11:19:34.535Z,112904.47
2023-02-22T11:20:37.414Z,112904.47
2023-02-22T11:21:40.501Z,112904.47
2023-02-22T11:22:43.468Z,113034.66
2023-02-22T11:23:46.649Z,113164.86
2023-02-22T11:24:49.771Z,113685.67
2023-02-22T11:25:52.720Z,113295.05
2023-02-22T11:26:56.022Z,113164.86
2023-02-22T11:27:58.771Z,113295.05
2023-02-22T11:29:02.400Z,113685.67
2023-02-22T11:30:05.892Z,113555.46
2023-02-22T11:31:08.971Z,113555.46
2023-02-22T11:32:12.478Z,113685.67
2023-02-22T11:33:15.610Z,113555.46
2023-02-22T11:34:18.886Z,113555.46
2023-02-22T11:35:21.967Z,113555.46
2023-02-22T11:36:25.047Z,113685.67
2023-02-22T11:37:28.320Z,113164.86
2023-02-22T11:38:31.297Z,113295.05
2023-02-22T11:39:34.408Z,113164.86
2023-02-22T11:40:37.360Z,113164.86
2023-02-22T11:41:40.451Z,113685.67
2023-02-22T11:42:43.513Z,113425.25
2023-02-22T11:43:46.494Z,113425.25
2023-02-22T11:44:49.986Z,113425.25
2023-02-22T11:45:58.992Z,113555.46
2023-02-22T11:46:57.690Z,113295.05
2023-02-22T11:48:00.992Z,112774.28
2023-02-22T11:49:04.372Z,112904.47
2023-02-22T11:50:08.004Z,112774.28
2023-02-22T11:51:14.116Z,112123.42
2023-02-22T11:52:15.829Z,112513.92
2023-02-22T11:53:18.919Z,112123.42
2023-02-22T11:54:22.305Z,112513.92
2023-02-22T11:55:41.449Z,112904.47
2023-02-22T11:56:37.814Z,113815.89
2023-02-22T11:57:35.222Z,114857.75
2023-02-22T11:58:38.520Z,115509.05
2023-02-22T11:59:41.829Z,115509.05
2023-02-22T12:00:44.985Z,115639.32
2023-02-22T12:01:47.858Z,115639.32
2023-02-22T12:02:56.865Z,115769.59
2023-02-22T12:03:55.973Z,115899.87
2023-02-22T12:04:59.088Z,116160.45
2023-02-22T12:06:02.144Z,116290.75
2023-02-22T12:07:04.987Z,116290.75
2023-02-22T12:08:19.234Z,116030.16
2023-02-22T12:09:12.882Z,116030.16
2023-02-22T12:10:16.003Z,116030.16
2023-02-22T12:11:19.061Z,115769.59
2023-02-22T12:12:22.242Z,115899.87
2023-02-22T12:13:25.304Z,115899.87
2023-02-22T12:14:28.593Z,115769.59
2023-02-22T12:15:31.718Z,116030.16
2023-02-22T12:16:35.683Z,116160.45
2023-02-22T12:17:40.252Z,116160.45
2023-02-22T12:18:43.272Z,116160.45
2023-02-22T12:19:46.452Z,116030.16
2023-02-22T12:20:49.524Z,116160.45
2023-02-22T12:21:52.910Z,116290.75
2023-02-22T12:22:55.882Z,116551.34
2023-02-22T12:23:58.972Z,116551.34
2023-02-22T12:25:09.406Z,116551.34
2023-02-22T12:26:06.618Z,116421.05
2023-02-22T12:27:09.664Z,116421.05
2023-02-22T12:28:23.728Z,116421.05
2023-02-22T12:29:16.962Z,116421.05
2023-02-22T12:30:20.372Z,116421.05
2023-02-22T12:31:23.108Z,116551.34
2023-02-22T12:32:26.233Z,116421.05
2023-02-22T12:33:29.166Z,116421.05
2023-02-22T12:34:32.210Z,116421.05
2023-02-22T12:35:35.316Z,116551.34
2023-02-22T12:36:37.985Z,116551.34
2023-02-22T12:37:40.957Z,116551.34
2023-02-22T12:38:43.769Z,116681.65
2023-02-22T12:39:53.150Z,116681.65
2023-02-22T12:40:51.730Z,116681.65
2023-02-22T12:41:54.610Z,116681.65
2023-02-22T12:42:57.629Z,116681.65
2023-02-22T12:44:00.558Z,116681.65
2023-02-22T12:45:05.108Z,116681.65
2023-02-22T12:46:07.799Z,116681.65
2023-02-22T12:47:10.719Z,116811.96
2023-02-22T12:48:13.399Z,116811.96
2023-02-22T12:49:15.957Z,116811.96
2023-02-22T12:50:18.949Z,116811.96
2023-02-22T12:51:22.313Z,116811.96
2023-02-22T12:52:25.305Z,116681.65
2023-02-22T12:53:27.958Z,116681.65
2023-02-22T12:54:30.738Z,116811.96
2023-02-22T12:55:33.608Z,116942.28
2023-02-22T12:56:36.393Z,116942.28
2023-02-22T12:57:39.099Z,116942.28
2023-02-22T12:58:41.932Z,116811.96
2023-02-22T12:59:44.695Z,116681.65
2023-02-22T13:00:47.775Z,116681.65
2023-02-22T13:01:50.746Z,116681.65
2023-02-22T13:02:53.423Z,116681.65
2023-02-22T13:03:56.513Z,116681.65
2023-02-22T13:04:59.618Z,116681.65
2023-02-22T13:06:02.363Z,116811.96
2023-02-22T13:07:05.541Z,116811.96
2023-02-22T13:08:08.205Z,116811.96
2023-02-22T13:09:11.080Z,116811.96
2023-02-22T13:10:14.052Z,116811.96
2023-02-22T13:11:17.194Z,116681.65
2023-02-22T13:12:20.217Z,116681.65
2023-02-22T13:13:23.099Z,116551.34
2023-02-22T13:14:25.784Z,116421.05
2023-02-22T13:15:28.543Z,116290.75
2023-02-22T13:16:31.528Z,116160.45
2023-02-22T13:17:34.834Z,116030.16
2023-02-22T13:18:37.870Z,115899.87
2023-02-22T13:19:40.764Z,115639.32
2023-02-22T13:20:43.646Z,115639.32
2023-02-22T13:21:46.528Z,115509.05
2023-02-22T13:22:49.886Z,115509.05
2023-02-22T13:23:53.088Z,115378.78
2023-02-22T13:24:56.153Z,115248.52
2023-02-22T13:25:59.140Z,115248.52
2023-02-22T13:27:02.036Z,114988.00
2023-02-22T13:28:05.480Z,114857.75
2023-02-22T13:29:08.357Z,114727.50
2023-02-22T13:30:11.035Z,114597.26
2023-02-22T13:31:14.145Z,114467.02
2023-02-22T13:32:17.233Z,114467.02
2023-02-22T13:33:20.289Z,114336.78
2023-02-22T13:34:23.356Z,114597.26
2023-02-22T13:35:26.444Z,114727.50
2023-02-22T13:36:29.636Z,114597.26
2023-02-22T13:37:34.198Z,114336.78
2023-02-22T13:38:37.311Z,114206.55
2023-02-22T13:39:40.295Z,114336.78
2023-02-22T13:40:43.277Z,114206.55
2023-02-22T13:41:46.236Z,114727.50
2023-02-22T13:42:49.130Z,114988.00
2023-02-22T13:43:52.392Z,114727.50
2023-02-22T13:44:55.584Z,114727.50
2023-02-22T13:45:58.793Z,114336.78
2023-02-22T13:47:01.734Z,113815.89
2023-02-22T13:48:04.663Z,113555.46
2023-02-22T13:49:08.029Z,113295.05
2023-02-22T13:50:10.974Z,113295.05
2023-02-22T13:51:13.954Z,113164.86
2023-02-22T13:52:17.038Z,113164.86
2023-02-22T13:53:19.810Z,112904.47
2023-02-22T13:54:23.219Z,113295.05
2023-02-22T13:55:26.164Z,113946.10
2023-02-22T13:56:29.241Z,114467.02
2023-02-22T13:57:31.908Z,114076.33
2023-02-22T13:58:34.992Z,114336.78
2023-02-22T13:59:37.786Z,114076.33
2023-02-22T14:00:40.328Z,113685.67
2023-02-22T14:01:43.224Z,113295.05
2023-02-22T14:02:46.206Z,112774.28
2023-02-22T14:03:49.473Z,112253.59
2023-02-22T14:04:52.676Z,111993.27
2023-02-22T14:05:55.827Z,111732.95
2023-02-22T14:06:58.702Z,111342.52
2023-02-22T14:08:01.483Z,111472.66
2023-02-22T14:09:04.353Z,111342.52
2023-02-22T14:10:07.102Z,111082.26
2023-02-22T14:11:09.995Z,111082.26
2023-02-22T14:12:12.974Z,110822.01
2023-02-22T14:13:15.545Z,110431.66
2023-02-22T14:14:18.223Z,110041.36
2023-02-22T14:15:30.503Z,110041.36
2023-02-22T14:16:25.453Z,109781.17
2023-02-22T14:17:28.195Z,109521.00
2023-02-22T14:18:31.137Z,109651.09
2023-02-22T14:19:33.853Z,110171.45
2023-02-22T14:20:37.170Z,110041.36
2023-02-22T14:21:40.385Z,110171.45
2023-02-22T14:22:45.687Z,109130.78
2023-02-22T14:23:48.281Z,107180.25
2023-02-22T14:24:50.952Z,104451.08
2023-02-22T14:25:54.133Z,101593.90
2023-02-22T14:26:56.807Z,98730.63
2023-02-22T14:27:59.791Z,94201.59
2023-02-22T14:29:02.549Z,89573.45
2023-02-22T14:30:05.668Z,85124.38
2023-02-22T14:31:08.861Z,86210.42
2023-02-22T14:32:12.463Z,83371.16
2023-02-22T14:33:15.503Z,83158.12
2023-02-22T14:34:18.477Z,87196.70
2023-02-22T14:35:27.450Z,83697.30
2023-02-22T14:36:26.153Z,80192.88
2023-02-22T14:37:29.029Z,82142.55
2023-02-22T14:38:32.005Z,78803.86
2023-02-22T14:39:34.992Z,79094.34
2023-02-22T14:40:37.860Z,80353.30
2023-02-22T14:41:41.058Z,78955.15
2023-02-22T14:42:44.042Z,78797.81
2023-02-22T14:43:46.895Z,77257.05
2023-02-22T14:44:50.241Z,77412.30
2023-02-22T14:45:53.652Z,79905.35
2023-02-22T14:46:57.050Z,82179.89
2023-02-22T14:48:00.127Z,85140.53
2023-02-22T14:49:02.902Z,82013.34
2023-02-22T14:50:05.885Z,79929.56
2023-02-22T14:51:20.583Z,81019.25
2023-02-22T14:52:13.281Z,81707.52
2023-02-22T14:53:16.346Z,84771.85
2023-02-22T14:54:19.533Z,83382.27
2023-02-22T14:55:22.622Z,81703.48
2023-02-22T14:56:25.390Z,81041.45
2023-02-22T14:57:29.833Z,81545.03
2023-02-22T14:58:32.874Z,83006.67
2023-02-22T14:59:35.952Z,84799.12
2023-02-22T15:00:39.182Z,83039.98
2023-02-22T15:01:55.314Z,81202.91
2023-02-22T15:02:47.325Z,83494.34
2023-02-22T15:04:01.968Z,84063.87
2023-02-22T15:04:54.585Z,86261.95
2023-02-22T15:05:57.496Z,83007.69
2023-02-22T15:07:00.373Z,85653.72
2023-02-22T15:08:03.552Z,85347.62
2023-02-22T15:09:06.531Z,86844.00
2023-02-22T15:10:09.511Z,83726.59
2023-02-22T15:11:12.485Z,82358.56
2023-02-22T15:12:15.569Z,82494.84
2023-02-22T15:13:18.445Z,79897.28
2023-02-22T15:14:26.157Z,83346.92
2023-02-22T15:15:26.060Z,83175.28
2023-02-22T15:16:29.069Z,85100.13
2023-02-22T15:17:31.891Z,88872.72
2023-02-22T15:18:34.872Z,89548.17
2023-02-22T15:19:37.734Z,89349.98
2023-02-22T15:20:40.714Z,89187.17
2023-02-22T15:21:43.692Z,90902.47
2023-02-22T15:22:46.781Z,92007.27
2023-02-22T15:23:50.172Z,93007.11
2023-02-22T15:24:53.443Z,89587.62
2023-02-22T15:25:56.216Z,91302.06
2023-02-22T15:27:02.533Z,90854.92
2023-02-22T15:28:03.637Z,93123.52
2023-02-22T15:29:06.699Z,95025.77
2023-02-22T15:30:09.721Z,94764.53
2023-02-22T15:31:12.541Z,95250.58
2023-02-22T15:32:15.525Z,94165.14
2023-02-22T15:33:19.070Z,95177.67
2023-02-22T15:34:22.284Z,94138.82
2023-02-22T15:35:25.158Z,94551.90
2023-02-22T15:36:28.136Z,90293.53
2023-02-22T15:37:31.139Z,86201.33
2023-02-22T15:38:34.094Z,87551.45
2023-02-22T15:39:37.601Z,82466.57
2023-02-22T15:40:40.493Z,81290.70
2023-02-22T15:41:43.439Z,79860.96
2023-02-22T15:42:46.322Z,80773.03
2023-02-22T15:43:49.281Z,84495.11
2023-02-22T15:44:52.260Z,82294.96
2023-02-22T15:45:55.485Z,83831.61
2023-02-22T15:46:58.445Z,84518.34
2023-02-22T15:48:01.298Z,83296.44
2023-02-22T15:49:04.169Z,83647.83
2023-02-22T15:50:07.356Z,85983.08
2023-02-22T15:51:10.452Z,84366.84
2023-02-22T15:52:13.451Z,88421.80
2023-02-22T15:53:16.391Z,89804.03
2023-02-22T15:54:27.059Z,89298.41
2023-02-22T15:55:25.693Z,90272.30
2023-02-22T15:56:28.724Z,89819.20
2023-02-22T15:57:31.678Z,90841.77
2023-02-22T15:58:34.669Z,90552.47
2023-02-22T15:59:37.736Z,91010.70
2023-02-22T16:00:40.940Z,91593.44
2023-02-22T16:01:43.865Z,91066.34
2023-02-22T16:02:47.695Z,90845.81
2023-02-22T16:03:50.762Z,90574.72
2023-02-22T16:04:59.583Z,89965.84
2023-02-22T16:05:59.173Z,89302.45
2023-02-22T16:07:02.155Z,90580.80
2023-02-22T16:08:05.129Z,93227.77
2023-02-22T16:09:08.211Z,93300.64
2023-02-22T16:10:10.989Z,93681.24
2023-02-22T16:11:13.753Z,93501.06
2023-02-22T16:12:16.640Z,92948.41
2023-02-22T16:13:31.038Z,91549.93
2023-02-22T16:14:24.117Z,92175.24
2023-02-22T16:15:26.994Z,90744.66
2023-02-22T16:16:30.138Z,90008.32
2023-02-22T16:17:33.180Z,90774.00
2023-02-22T16:18:36.093Z,89729.20
2023-02-22T16:19:41.394Z,88648.27
2023-02-22T16:20:43.956Z,88133.69
2023-02-22T16:21:47.020Z,85768.89
2023-02-22T16:22:49.992Z,85251.66
2023-02-22T16:23:52.972Z,85415.30
2023-02-22T16:24:56.033Z,84853.66
2023-02-22T16:25:59.118Z,86538.81
2023-02-22T16:27:02.015Z,85059.73
2023-02-22T16:28:04.765Z,88141.78
2023-02-22T16:29:07.646Z,86379.16
2023-02-22T16:30:23.260Z,87571.67
2023-02-22T16:31:15.390Z,90476.61
2023-02-22T16:32:18.919Z,89065.84
2023-02-22T16:33:21.912Z,91048.13
2023-02-22T16:34:25.086Z,89773.69
2023-02-22T16:35:28.117Z,88834.30
2023-02-22T16:36:31.137Z,90520.10
2023-02-22T16:37:34.029Z,90754.78
2023-02-22T16:38:36.996Z,92509.19
2023-02-22T16:39:41.729Z,93237.88
2023-02-22T16:40:44.804Z,92968.66
2023-02-22T16:41:47.557Z,91325.33
2023-02-22T16:42:50.554Z,91817.05
2023-02-22T16:43:53.345Z,92774.34
2023-02-22T16:44:56.209Z,93746.03
2023-02-22T16:45:59.567Z,93286.47
2023-02-22T16:47:02.566Z,92250.13
2023-02-22T16:48:05.948Z,92264.30
2023-02-22T16:49:09.217Z,92233.94
2023-02-22T16:50:12.306Z,92227.86
2023-02-22T16:51:15.286Z,89808.08
2023-02-22T16:52:18.456Z,88161.99
2023-02-22T16:53:21.856Z,85985.10
2023-02-22T16:54:24.718Z,86365.02
2023-02-22T16:55:27.691Z,85257.72
2023-02-22T16:56:31.267Z,86177.08
2023-02-22T16:57:34.158Z,87323.03
2023-02-22T16:58:37.550Z,87737.44
2023-02-22T16:59:40.635Z,89990.11
2023-02-22T17:00:44.122Z,91015.77
2023-02-22T17:01:47.023Z,88584.57
2023-02-22T17:02:49.656Z,88176.14
2023-02-22T17:03:52.539Z,88786.78
2023-02-22T17:04:55.314Z,88653.32
2023-02-22T17:05:58.178Z,89725.15
2023-02-22T17:07:02.622Z,90731.51
2023-02-22T17:08:05.771Z,90460.42
2023-02-22T17:09:08.745Z,91575.23
2023-02-22T17:10:11.647Z,91945.55
2023-02-22T17:11:14.826Z,92224.83
2023-02-22T17:12:18.008Z,91011.72
2023-02-22T17:13:24.928Z,92766.23
2023-02-22T17:14:25.785Z,92748.02
2023-02-22T17:15:28.666Z,91902.03
2023-02-22T17:16:31.527Z,90458.41
2023-02-22T17:17:34.404Z,89051.69
2023-02-22T17:18:37.394Z,89107.30
2023-02-22T17:19:40.582Z,89209.42
2023-02-22T17:20:43.746Z,90684.98
2023-02-22T17:21:46.629Z,88602.77
2023-02-22T17:22:49.577Z,89962.81
2023-02-22T17:23:52.389Z,90495.83
2023-02-22T17:24:55.567Z,89484.47
2023-02-22T17:25:58.530Z,90442.22
2023-02-22T17:27:01.523Z,92773.32
2023-02-22T17:28:04.390Z,96043.59
2023-02-22T17:29:07.264Z,99517.22
2023-02-22T17:30:10.276Z,102892.36
2023-02-22T17:31:13.449Z,104840.84
2023-02-22T17:32:16.635Z,107310.25
2023-02-22T17:33:19.475Z,108480.50
2023-02-22T17:34:22.348Z,109130.78
2023-02-22T17:35:25.529Z,109651.09
2023-02-22T17:36:28.428Z,110171.45
2023-02-22T17:37:31.281Z,110952.13
2023-02-22T17:38:34.363Z,111732.95
2023-02-22T17:39:37.252Z,113164.86
2023-02-22T17:40:40.168Z,113815.89
2023-02-22T17:41:43.085Z,113815.89
2023-02-22T17:42:46.063Z,113685.67
2023-02-22T17:43:49.051Z,113946.10
2023-02-22T17:44:51.928Z,114206.55
2023-02-22T17:45:54.880Z,114206.55
2023-02-22T17:46:57.476Z,114206.55
2023-02-22T17:48:00.250Z,113946.10
2023-02-22T17:49:03.008Z,114206.55
2023-02-22T17:50:05.632Z,114467.02
2023-02-22T17:51:08.674Z,114988.00
2023-02-22T17:52:11.143Z,114988.00
2023-02-22T17:53:13.805Z,114857.75
2023-02-22T17:54:16.807Z,114597.26
2023-02-22T17:55:20.282Z,114336.78
2023-02-22T17:56:23.470Z,114206.55
2023-02-22T17:57:26.513Z,113685.67
2023-02-22T17:58:29.403Z,113164.86
2023-02-22T17:59:32.262Z,112904.47
2023-02-22T18:00:35.142Z,112904.47
2023-02-22T18:01:38.299Z,112774.28
2023-02-22T18:02:41.218Z,112644.11
2023-02-22T18:03:43.979Z,112383.76
2023-02-22T18:04:46.843Z,112253.59
2023-02-22T18:05:49.856Z,111602.80
2023-02-22T18:06:52.897Z,111602.80
2023-02-22T18:07:55.871Z,111732.95
2023-02-22T18:08:58.754Z,111212.39
2023-02-22T18:10:01.540Z,111082.26
2023-02-22T18:11:04.902Z,111212.39
2023-02-22T18:12:07.702Z,111993.27
2023-02-22T18:13:10.552Z,112123.42
2023-02-22T18:14:13.439Z,112123.42
2023-02-22T18:15:16.610Z,112123.42
2023-02-22T18:16:19.761Z,111342.52
2023-02-22T18:17:22.877Z,111472.66
2023-02-22T18:18:25.751Z,111082.26
2023-02-22T18:19:28.615Z,110952.13
2023-02-22T18:20:31.603Z,111212.39
2023-02-22T18:21:34.889Z,111472.66
2023-02-22T18:22:38.081Z,111082.26
2023-02-22T18:23:41.165Z,111342.52
2023-02-22T18:24:43.921Z,110952.13
2023-02-22T18:25:47.635Z,111342.52
2023-02-22T18:26:51.254Z,111212.39
2023-02-22T18:27:54.613Z,111212.39
2023-02-22T18:28:57.160Z,110952.13
2023-02-22T18:30:00.144Z,110952.13
2023-02-22T18:31:03.436Z,110561.77
2023-02-22T18:32:06.315Z,110691.89
2023-02-22T18:33:09.369Z,110691.89
2023-02-22T18:34:12.448Z,110822.01
2023-02-22T18:35:15.438Z,110822.01
2023-02-22T18:36:18.737Z,110952.13
2023-02-22T18:37:21.799Z,110952.13
2023-02-22T18:38:24.884Z,110691.89
2023-02-22T18:39:27.854Z,110952.13
2023-02-22T18:40:30.922Z,111212.39
2023-02-22T18:41:33.851Z,111342.52
2023-02-22T18:42:36.779Z,111863.11
2023-02-22T18:43:39.663Z,113295.05
2023-02-22T18:44:42.639Z,114467.02
2023-02-22T18:45:45.407Z,115769.59
2023-02-22T18:46:48.206Z,116421.05
2023-02-22T18:47:50.952Z,116681.65
2023-02-22T18:48:54.144Z,116811.96
2023-02-22T18:49:56.908Z,116942.28
2023-02-22T18:50:59.869Z,116943.30
2023-02-22T18:52:02.854Z,116943.30
2023-02-22T18:53:05.841Z,116943.30
2023-02-22T18:54:08.509Z,116943.30
2023-02-22T18:55:11.381Z,116943.30
2023-02-22T18:56:14.153Z,116943.30
2023-02-22T18:57:17.021Z,116943.30
2023-02-22T18:58:19.912Z,116943.30
2023-02-22T18:59:23.010Z,116943.30
2023-02-22T19:00:25.751Z,116942.28
2023-02-22T19:01:28.689Z,116942.28
2023-02-22T19:02:31.559Z,116811.96
2023-02-22T19:03:34.676Z,116811.96
2023-02-22T19:04:37.757Z,116942.28
2023-02-22T19:05:40.657Z,116681.65
2023-02-22T19:06:43.813Z,116421.05
2023-02-22T19:07:46.808Z,116290.75
2023-02-22T19:08:50.099Z,116030.16
2023-02-22T19:09:53.139Z,115639.32
2023-02-22T19:10:56.255Z,115509.05
2023-02-22T19:11:59.237Z,115509.05
2023-02-22T19:13:02.025Z,115509.05
2023-02-22T19:14:04.864Z,115769.59
2023-02-22T19:15:08.056Z,116030.16
2023-02-22T19:16:10.974Z,116030.16
2023-02-22T19:17:13.840Z,116030.16
2023-02-22T19:18:16.676Z,116030.16
2023-02-22T19:19:19.646Z,116030.16
2023-02-22T19:20:22.770Z,116030.16
2023-02-22T19:21:25.707Z,116160.45
2023-02-22T19:22:28.472Z,116030.16
2023-02-22T19:23:34.324Z,116030.16
2023-02-22T19:24:35.778Z,116160.45
2023-02-22T19:25:39.147Z,116160.45
2023-02-22T19:26:42.152Z,116030.16
2023-02-22T19:27:45.102Z,115899.87
2023-02-22T19:28:48.280Z,116030.16
2023-02-22T19:29:51.152Z,116030.16
2023-02-22T19:30:54.362Z,115899.87
2023-02-22T19:31:57.503Z,115769.59
2023-02-22T19:33:00.603Z,115639.32
2023-02-22T19:34:03.572Z,115509.05
2023-02-22T19:35:06.836Z,115248.52
2023-02-22T19:36:10.783Z,115248.52
2023-02-22T19:37:13.752Z,114988.00
2023-02-22T19:38:16.510Z,114988.00
2023-02-22T19:39:19.906Z,114857.75
2023-02-22T19:40:23.003Z,114988.00
2023-02-22T19:41:26.047Z,115248.52
2023-02-22T19:42:29.130Z,115118.26
2023-02-22T19:43:32.120Z,114857.75
2023-02-22T19:44:35.392Z,114727.50
2023-02-22T19:45:38.281Z,114727.50
2023-02-22T19:46:41.650Z,114467.02
2023-02-22T19:47:44.534Z,114467.02
2023-02-22T19:48:47.298Z,114336.78
2023-02-22T19:49:50.284Z,114467.02
2023-02-22T19:50:53.050Z,114206.55
2023-02-22T19:51:56.330Z,114206.55
2023-02-22T19:52:59.210Z,114336.78
2023-02-22T19:54:02.187Z,114336.78
2023-02-22T19:55:05.292Z,114467.02
2023-02-22T19:56:08.049Z,114727.50
2023-02-22T19:57:11.187Z,114727.50
2023-02-22T19:58:14.187Z,114727.50
2023-02-22T19:59:17.270Z,114727.50
2023-02-22T20:00:20.260Z,114988.00
2023-02-22T20:01:23.242Z,114988.00
2023-02-22T20:02:26.666Z,114988.00
2023-02-22T20:03:29.647Z,115118.26
2023-02-22T20:04:32.604Z,115248.52
2023-02-22T20:05:35.450Z,115248.52
2023-02-22T20:06:38.213Z,115378.78
2023-02-22T20:07:41.295Z,115378.78
2023-02-22T20:08:44.073Z,115118.26
2023-02-22T20:09:46.945Z,115248.52
2023-02-22T20:10:49.813Z,115248.52
2023-02-22T20:11:52.691Z,115248.52
2023-02-22T20:12:55.973Z,115248.52
2023-02-22T20:13:58.877Z,115248.52
2023-02-22T20:15:01.623Z,115118.26
2023-02-22T20:16:04.601Z,114988.00
2023-02-22T20:17:07.804Z,115248.52
2023-02-22T20:18:10.961Z,115248.52
2023-02-22T20:19:13.764Z,114988.00
2023-02-22T20:20:16.815Z,114857.75
2023-02-22T20:21:20.213Z,114857.75
2023-02-22T20:22:23.414Z,114727.50
2023-02-22T20:23:26.491Z,114727.50
2023-02-22T20:24:29.231Z,114857.75
2023-02-22T20:25:32.213Z,115378.78
2023-02-22T20:26:35.292Z,115509.05
2023-02-22T20:27:38.271Z,115248.52
2023-02-22T20:28:41.366Z,115509.05
2023-02-22T20:29:44.942Z,115378.78
2023-02-22T20:30:47.822Z,115378.78
2023-02-22T20:31:50.686Z,115378.78
2023-02-22T20:32:54.136Z,115378.78
2023-02-22T20:33:57.646Z,115118.26
2023-02-22T20:35:01.668Z,115118.26
2023-02-22T20:36:04.546Z,114988.00
2023-02-22T20:37:07.619Z,115248.52
2023-02-22T20:38:10.627Z,115639.32
2023-02-22T20:39:13.663Z,116160.45
2023-02-22T20:40:16.558Z,116421.05
2023-02-22T20:41:19.495Z,116551.34
2023-02-22T20:42:22.518Z,116681.65
2023-02-22T20:43:25.705Z,116811.96
2023-02-22T20:44:28.397Z,116943.30
2023-02-22T20:45:30.841Z,116943.30
2023-02-22T20:46:33.393Z,116943.30
2023-02-22T20:47:36.163Z,116943.30
2023-02-22T20:48:38.846Z,116943.30
2023-02-22T20:49:42.038Z,116943.30
2023-02-22T20:50:45.013Z,116943.30
2023-02-22T20:51:47.709Z,116943.30
2023-02-22T20:52:50.556Z,116943.30
2023-02-22T20:53:53.107Z,116943.30
2023-02-22T20:54:56.187Z,116943.30
2023-02-22T20:55:59.071Z,116943.30
2023-02-22T20:57:01.934Z,116943.30
2023-02-22T20:58:04.742Z,116943.30
2023-02-22T20:59:07.396Z,116943.30
2023-02-22T21:00:10.250Z,116943.30
2023-02-22T21:01:13.056Z,116943.30
2023-02-22T21:02:15.692Z,116943.30
2023-02-22T21:03:18.687Z,116943.30
2023-02-22T21:04:21.524Z,116943.30
2023-02-22T21:05:24.534Z,116943.30
2023-02-22T21:06:27.519Z,116943.30
2023-02-22T21:07:30.589Z,116943.30
2023-02-22T21:08:33.662Z,116943.30
2023-02-22T21:09:36.654Z,116943.30
2023-02-22T21:10:39.731Z,116943.30
2023-02-22T21:11:42.509Z,116943.30
2023-02-22T21:12:46.478Z,116943.30
2023-02-22T21:13:49.890Z,116943.30
2023-02-22T21:14:53.568Z,116943.30
2023-02-22T21:15:56.868Z,116943.30
2023-02-22T21:17:00.041Z,116943.30
2023-02-22T21:18:03.152Z,116943.30
2023-02-22T21:19:06.230Z,116943.30
2023-02-22T21:20:09.182Z,116943.30
2023-02-22T21:21:12.167Z,116943.30
2023-02-22T21:22:15.447Z,116943.30
2023-02-22T21:23:18.752Z,116943.30
2023-02-22T21:24:22.016Z,116943.30
2023-02-22T21:25:25.201Z,116943.30
2023-02-22T21:26:28.884Z,116943.30
2023-02-22T21:27:32.273Z,116943.30
2023-02-22T21:28:50.523Z,116943.30
2023-02-22T21:29:40.193Z,116943.30
2023-02-22T21:30:43.234Z,116943.30
2023-02-22T21:31:46.789Z,116943.30
2023-02-22T21:32:49.945Z,116943.30
2023-02-22T21:33:52.990Z,116943.30
2023-02-22T21:34:55.785Z,116943.30
2023-02-22T21:35:58.643Z,116943.30
2023-02-22T21:37:02.040Z,116943.30
2023-02-22T21:38:04.900Z,116943.30
2023-02-22T21:39:07.887Z,116943.30
2023-02-22T21:40:10.886Z,116943.30
2023-02-22T21:41:13.732Z,116943.30
2023-02-22T21:42:16.820Z,116943.30
2023-02-22T21:43:19.683Z,116943.30
2023-02-22T21:44:22.785Z,116943.30
2023-02-22T21:45:25.739Z,116943.30
2023-02-22T21:46:28.937Z,116943.30
2023-02-22T21:47:32.432Z,116943.30
2023-02-22T21:48:35.402Z,116943.30
2023-02-22T21:49:38.785Z,116943.30
2023-02-22T21:50:41.651Z,116943.30
2023-02-22T21:51:44.425Z,116943.30
2023-02-22T21:52:47.618Z,116943.30
2023-02-22T21:53:50.585Z,116943.30
2023-02-22T21:54:53.676Z,116943.30
2023-02-22T21:55:56.432Z,116943.30
2023-02-22T21:56:59.310Z,116943.30
2023-02-22T21:58:02.387Z,116943.30
2023-02-22T21:59:05.471Z,116943.30
2023-02-22T22:00:08.654Z,116943.30
2023-02-22T22:01:11.650Z,116943.30
2023-02-22T22:02:15.008Z,116943.30
2023-02-22T22:03:18.304Z,116943.30
2023-02-22T22:04:21.296Z,116943.30
2023-02-22T22:05:24.353Z,116943.30
2023-02-22T22:06:27.160Z,116943.30
2023-02-22T22:07:30.020Z,116943.30
2023-02-22T22:08:32.881Z,116943.30
2023-02-22T22:09:35.652Z,116943.30
2023-02-22T22:10:38.622Z,116943.30
2023-02-22T22:11:41.494Z,116943.30
2023-02-22T22:12:44.268Z,116943.30
2023-02-22T22:13:47.449Z,116943.30
2023-02-22T22:14:50.536Z,116943.30
2023-02-22T22:15:53.569Z,116943.30
2023-02-22T22:16:56.385Z,116943.30
2023-02-22T22:17:59.156Z,116943.30
2023-02-22T22:19:02.434Z,116943.30
2023-02-22T22:20:05.417Z,116943.30
2023-02-22T22:21:08.594Z,116943.30
2023-02-22T22:22:11.687Z,116943.30
2023-02-22T22:23:14.770Z,116943.30
2023-02-22T22:24:17.836Z,116943.30
2023-02-22T22:25:20.818Z,116943.30
2023-02-22T22:26:23.710Z,116943.30
2023-02-22T22:27:26.448Z,116943.30
2023-02-22T22:28:29.434Z,116943.30
2023-02-22T22:29:32.813Z,116943.30
2023-02-22T22:30:35.942Z,116943.30
2023-02-22T22:31:39.087Z,116943.30
2023-02-22T22:32:42.067Z,116943.30
2023-02-22T22:33:44.831Z,116943.30
2023-02-22T22:34:48.221Z,116943.30
2023-02-22T22:35:51.293Z,116943.30
2023-02-22T22:36:54.076Z,116943.30
2023-02-22T22:37:57.044Z,116943.30
2023-02-22T22:39:00.249Z,116943.30
2023-02-22T22:40:03.334Z,116943.30
2023-02-22T22:41:06.286Z,116943.30
2023-02-22T22:42:09.170Z,116943.30
2023-02-22T22:43:12.028Z,116943.30
2023-02-22T22:44:15.070Z,116943.30
2023-02-22T22:45:18.359Z,116943.30
2023-02-22T22:46:21.294Z,116943.30
2023-02-22T22:47:24.244Z,116943.30
2023-02-22T22:48:27.225Z,116943.30
2023-02-22T22:49:30.357Z,116943.30
2023-02-22T22:50:33.586Z,116943.30
2023-02-22T22:51:36.599Z,116943.30
2023-02-22T22:52:39.446Z,116943.30
2023-02-22T22:53:42.319Z,116943.30
2023-02-22T22:54:45.386Z,116943.30
2023-02-22T22:55:48.794Z,116943.30
2023-02-22T22:56:51.572Z,116943.30
2023-02-22T22:57:54.424Z,116943.30
2023-02-22T22:58:57.436Z,116943.30
2023-02-22T23:00:00.410Z,116943.30